Time;durP1;ratioP1;P1;durP2;ratioP2;P2;SDS_P1;SDS_P2;PMS_P1;PMS_P2;Temp;Humidity;BMP_temperature;BMP_pressure;BME280_temperature;BME280_humidity;BME280_pressure;Samples;Min_cycle;Max_cycle;Signal;HPM_P1;HPM_P2
2022/05/06 00:02:10;;;;;;;11.05;7.75;;;17.00;77.90;;;;;;5074660;28;20044;-69
2022/05/06 00:04:36;;;;;;;12.70;7.95;;;17.00;78.40;;;;;;5075098;28;20025;-67
2022/05/06 00:07:03;;;;;;;13.98;8.15;;;17.00;78.50;;;;;;5074969;28;20074;-69
2022/05/06 00:09:29;;;;;;;9.25;8.05;;;17.00;78.70;;;;;;5074914;28;20028;-67
2022/05/06 00:11:54;;;;;;;10.95;7.68;;;17.00;79.00;;;;;;5074953;28;20124;-67
2022/05/06 00:14:20;;;;;;;14.82;7.88;;;17.00;79.00;;;;;;5075039;28;20064;-66
2022/05/06 00:16:46;;;;;;;13.40;7.68;;;17.00;79.50;;;;;;5074426;28;20029;-68
2022/05/06 00:19:12;;;;;;;8.35;7.50;;;17.00;79.80;;;;;;5074586;28;20536;-67
2022/05/06 00:21:38;;;;;;;13.82;8.63;;;17.00;79.80;;;;;;5074638;28;20500;-67
2022/05/06 00:24:04;;;;;;;12.23;8.80;;;16.90;79.70;;;;;;5074616;28;20042;-67
2022/05/06 00:26:30;;;;;;;15.30;8.80;;;17.00;79.40;;;;;;5074651;28;20496;-67
2022/05/06 00:28:56;;;;;;;14.55;9.18;;;17.00;79.20;;;;;;5074958;28;20024;-67
2022/05/06 00:31:22;;;;;;;13.88;8.57;;;17.00;78.90;;;;;;5074522;28;20036;-67
2022/05/06 00:33:48;;;;;;;14.63;9.23;;;17.00;79.00;;;;;;5074476;28;20523;-67
2022/05/06 00:36:14;;;;;;;12.10;9.10;;;17.00;79.00;;;;;;5074442;28;20041;-69
2022/05/06 00:38:44;;;;;;;12.20;9.35;;;17.00;80.10;;;;;;5074388;28;20064;-68
2022/05/06 00:41:10;;;;;;;19.25;9.13;;;16.90;80.00;;;;;;5074357;28;20047;-67
2022/05/06 00:43:40;;;;;;;13.63;9.82;;;16.90;81.20;;;;;;5074652;28;20534;-67
2022/05/06 00:46:16;;;;;;;14.55;10.27;;;16.90;81.90;;;;;;5074500;28;20146;-67
2022/05/06 00:48:47;;;;;;;14.68;9.63;;;16.90;82.10;;;;;;5074286;28;20473;-69
2022/05/06 00:51:14;;;;;;;23.75;11.50;;;16.90;82.70;;;;;;5074251;28;20037;-67
2022/05/06 00:53:43;;;;;;;15.93;9.60;;;16.80;82.90;;;;;;5074183;28;20062;-67
2022/05/06 00:56:11;;;;;;;14.57;9.90;;;16.80;83.00;;;;;;5073863;28;20040;-67
2022/05/06 00:58:37;;;;;;;11.18;9.80;;;16.70;83.60;;;;;;5071632;28;20485;-68
2022/05/06 01:01:04;;;;;;;12.45;9.48;;;16.70;84.20;;;;;;5071156;28;20049;-68
2022/05/06 01:03:31;;;;;;;13.15;9.70;;;16.60;84.40;;;;;;5070936;28;20095;-67
2022/05/06 01:05:57;;;;;;;10.80;9.43;;;16.70;83.90;;;;;;5073106;28;20070;-67
2022/05/06 01:08:22;;;;;;;13.13;9.70;;;16.60;83.40;;;;;;5073297;28;20028;-67
2022/05/06 01:10:48;;;;;;;12.63;9.70;;;16.70;82.90;;;;;;5073646;28;20029;-68
2022/05/06 01:13:14;;;;;;;12.85;9.25;;;16.70;82.70;;;;;;5073412;28;20465;-67
2022/05/06 01:15:40;;;;;;;12.30;9.70;;;16.70;83.20;;;;;;5073687;28;20036;-68
2022/05/06 01:18:11;;;;;;;12.00;9.73;;;16.70;82.70;;;;;;5073689;28;20078;-67
2022/05/06 01:20:42;;;;;;;13.52;9.95;;;16.60;82.90;;;;;;5073280;28;20047;-67
2022/05/06 01:23:08;;;;;;;12.07;9.60;;;16.70;82.80;;;;;;5073205;28;20059;-67
2022/05/06 01:25:34;;;;;;;10.75;9.75;;;16.60;82.90;;;;;;5073687;28;20473;-67
2022/05/06 01:28:05;;;;;;;10.98;9.88;;;16.60;83.00;;;;;;5073061;28;20489;-67
2022/05/06 01:30:45;;;;;;;10.77;9.68;;;16.60;83.70;;;;;;5073196;28;20045;-67
2022/05/06 01:33:15;;;;;;;12.30;10.82;;;16.60;84.50;;;;;;5072926;28;20032;-67
2022/05/06 01:35:44;;;;;;;12.55;10.77;;;16.50;85.40;;;;;;5073168;28;20032;-67
2022/05/06 01:38:15;;;;;;;19.15;11.10;;;16.50;85.80;;;;;;5072980;28;20031;-67
2022/05/06 01:40:47;;;;;;;12.55;11.13;;;16.50;86.00;;;;;;5072951;28;20147;-67
2022/05/06 01:43:15;;;;;;;14.85;11.13;;;16.40;86.20;;;;;;5073598;28;20029;-67
2022/05/06 01:45:44;;;;;;;17.05;10.50;;;16.40;85.70;;;;;;5073210;28;20036;-67
2022/05/06 01:48:11;;;;;;;12.85;11.40;;;16.40;86.00;;;;;;5072821;28;20036;-67
2022/05/06 01:50:39;;;;;;;11.73;10.52;;;16.40;86.30;;;;;;5073101;28;20036;-67
2022/05/06 01:53:08;;;;;;;12.77;10.52;;;16.40;86.30;;;;;;5073364;28;20036;-67
2022/05/06 01:55:33;;;;;;;13.98;10.90;;;16.30;86.80;;;;;;5073047;28;20368;-66
2022/05/06 01:57:59;;;;;;;12.43;11.18;;;16.40;87.20;;;;;;5073155;28;20033;-67
2022/05/06 02:00:25;;;;;;;14.65;10.93;;;16.30;87.20;;;;;;5072766;28;20530;-66
2022/05/06 02:02:51;;;;;;;14.13;11.60;;;16.30;86.90;;;;;;5072875;28;20040;-67
2022/05/06 02:05:17;;;;;;;16.60;11.27;;;16.30;87.20;;;;;;5072883;28;20481;-68
2022/05/06 02:07:50;;;;;;;17.63;11.32;;;16.30;87.20;;;;;;5072728;28;20035;-68
2022/05/06 02:10:17;;;;;;;12.82;11.52;;;16.30;87.40;;;;;;5072449;28;20037;-68
2022/05/06 02:12:47;;;;;;;12.52;11.18;;;16.30;87.10;;;;;;5072719;28;20036;-67
2022/05/06 02:15:14;;;;;;;12.43;11.20;;;16.30;86.80;;;;;;5072790;28;20044;-67
2022/05/06 02:17:41;;;;;;;12.43;11.20;;;16.30;86.90;;;;;;5072830;28;20075;-68
2022/05/06 02:20:09;;;;;;;13.90;11.43;;;16.30;87.00;;;;;;5072693;28;20041;-67
2022/05/06 02:22:36;;;;;;;16.20;12.32;;;16.30;87.50;;;;;;5072524;28;20036;-67
2022/05/06 02:25:04;;;;;;;14.45;12.52;;;16.30;88.40;;;;;;5072445;28;20511;-67
2022/05/06 02:27:30;;;;;;;13.57;12.18;;;16.30;88.60;;;;;;5072752;28;20040;-67
2022/05/06 02:35:25;;;;;;;13.18;11.43;;;16.30;88.80;;;;;;5072439;28;20078;-68
2022/05/06 02:37:51;;;;;;;16.23;11.57;;;16.20;88.50;;;;;;5072178;28;20043;-68
2022/05/06 02:40:18;;;;;;;16.35;11.48;;;16.20;88.30;;;;;;5072845;28;20045;-67
2022/05/06 02:42:43;;;;;;;12.73;11.48;;;16.20;88.50;;;;;;5076541;28;20036;-69
2022/05/06 02:45:10;;;;;;;12.35;11.00;;;16.20;88.70;;;;;;5076922;28;20090;-67
2022/05/06 02:47:37;;;;;;;14.20;11.43;;;16.10;88.70;;;;;;5076765;28;20393;-67
2022/05/06 02:50:03;;;;;;;13.13;11.45;;;16.10;88.90;;;;;;5076421;28;20410;-67
2022/05/06 02:52:29;;;;;;;14.43;11.00;;;16.10;89.20;;;;;;5076429;28;20378;-67
2022/05/06 02:54:55;;;;;;;13.13;11.77;;;16.10;89.40;;;;;;5076474;28;20090;-68
2022/05/06 02:57:20;;;;;;;18.75;11.90;;;16.10;90.00;;;;;;5076275;28;20045;-67
2022/05/06 02:59:46;;;;;;;16.95;12.93;;;16.00;90.00;;;;;;5076437;28;20029;-67
2022/05/06 03:02:12;;;;;;;14.35;12.88;;;16.00;90.20;;;;;;5076446;28;20044;-67
2022/05/06 03:04:38;;;;;;;17.08;13.63;;;16.00;90.20;;;;;;5076436;28;20465;-68
2022/05/06 03:07:06;;;;;;;14.63;13.23;;;16.00;90.40;;;;;;5075947;28;20554;-67
2022/05/06 03:09:33;;;;;;;14.23;12.73;;;15.90;90.40;;;;;;5075858;28;20524;-67
2022/05/06 03:11:59;;;;;;;15.73;13.93;;;15.90;90.40;;;;;;5076154;28;20033;-67
2022/05/06 03:14:25;;;;;;;15.05;13.48;;;15.90;90.40;;;;;;5075873;28;20025;-67
2022/05/06 03:16:51;;;;;;;17.02;14.07;;;15.90;90.50;;;;;;5075931;28;20408;-67
2022/05/06 03:19:16;;;;;;;14.18;12.85;;;15.90;90.40;;;;;;5075592;28;20039;-68
2022/05/06 03:21:45;;;;;;;14.93;13.18;;;15.90;90.50;;;;;;5075656;28;20047;-67
2022/05/06 03:24:11;;;;;;;14.60;12.85;;;15.90;90.40;;;;;;5075580;28;20457;-67
2022/05/06 03:26:37;;;;;;;14.90;13.45;;;15.90;90.40;;;;;;5075515;28;20098;-68
2022/05/06 03:29:03;;;;;;;16.05;14.10;;;15.90;90.50;;;;;;5076008;28;20115;-67
2022/05/06 03:31:29;;;;;;;15.02;13.60;;;15.90;90.80;;;;;;5075670;28;20090;-67
2022/05/06 03:33:57;;;;;;;15.63;14.13;;;15.80;90.80;;;;;;5075602;28;20056;-67
2022/05/06 03:36:24;;;;;;;15.38;13.00;;;15.80;91.00;;;;;;5075595;28;20029;-69
2022/05/06 03:38:50;;;;;;;14.68;13.20;;;15.90;90.90;;;;;;5075765;28;20036;-68
2022/05/06 03:41:15;;;;;;;15.75;13.70;;;15.80;90.70;;;;;;5075621;28;20049;-67
2022/05/06 03:43:41;;;;;;;15.25;13.68;;;15.80;90.80;;;;;;5075534;28;20033;-67
2022/05/06 03:46:07;;;;;;;16.02;13.85;;;15.80;90.80;;;;;;5075817;28;20040;-67
2022/05/06 03:48:35;;;;;;;15.48;13.98;;;15.80;90.90;;;;;;5075628;28;20464;-67
2022/05/06 03:53:45;;;;;;;15.02;13.55;;;15.80;90.80;;;;;;5074785;28;20100;-67
2022/05/06 03:56:10;;;;;;;14.55;13.15;;;15.80;90.70;;;;;;5075282;28;20075;-68
2022/05/06 03:58:36;;;;;;;14.88;13.40;;;15.80;90.80;;;;;;5075324;28;20490;-67
2022/05/06 04:01:07;;;;;;;15.98;14.13;;;15.80;90.70;;;;;;5075232;28;20036;-67
2022/05/06 04:03:33;;;;;;;17.58;14.68;;;15.80;90.70;;;;;;5074996;28;20033;-67
2022/05/06 04:05:59;;;;;;;16.05;14.50;;;15.80;91.00;;;;;;5074768;28;20045;-68
2022/05/06 04:08:25;;;;;;;15.75;14.25;;;15.80;91.00;;;;;;5074963;28;20064;-67
2022/05/06 04:10:50;;;;;;;15.63;14.13;;;15.80;91.10;;;;;;5075051;28;20106;-67
2022/05/06 04:13:18;;;;;;;20.02;14.48;;;15.80;91.20;;;;;;5075012;28;20036;-67
2022/05/06 04:15:48;;;;;;;15.73;13.80;;;15.70;91.20;;;;;;5075107;28;20021;-67
2022/05/06 04:18:14;;;;;;;14.68;12.60;;;15.80;91.20;;;;;;5074611;28;20032;-67
2022/05/06 04:23:30;;;;;;;17.27;13.93;;;15.80;91.00;;;;;;5074922;28;20431;-67
2022/05/06 04:26:04;;;;;;;14.63;13.17;;;15.80;90.80;;;;;;5074721;28;20033;-67
2022/05/06 04:28:31;;;;;;;14.93;13.27;;;15.80;90.70;;;;;;5074764;28;20104;-68
2022/05/06 04:30:57;;;;;;;14.20;12.85;;;15.80;90.70;;;;;;5074466;28;20037;-67
2022/05/06 04:33:26;;;;;;;16.17;12.85;;;15.80;90.70;;;;;;5074586;28;20032;-68
2022/05/06 04:35:56;;;;;;;15.55;12.52;;;15.80;90.70;;;;;;5074439;28;20036;-68
2022/05/06 04:38:22;;;;;;;15.25;12.93;;;15.80;90.90;;;;;;5074330;28;20075;-68
2022/05/06 04:40:49;;;;;;;15.57;13.38;;;15.80;90.70;;;;;;5074174;28;20090;-69
2022/05/06 04:43:21;;;;;;;16.45;13.13;;;15.70;90.70;;;;;;5073991;28;20362;-69
2022/05/06 04:45:47;;;;;;;15.27;13.77;;;15.80;91.20;;;;;;5073998;28;20043;-70
2022/05/06 04:48:13;;;;;;;15.13;13.43;;;15.80;91.00;;;;;;5074349;28;20036;-68
2022/05/06 04:50:41;;;;;;;14.82;13.40;;;15.70;90.90;;;;;;5074236;28;20041;-68
2022/05/06 04:53:08;;;;;;;15.80;14.15;;;15.80;90.90;;;;;;5074174;28;20036;-68
2022/05/06 04:55:38;;;;;;;15.30;13.80;;;15.80;91.00;;;;;;5073893;28;20044;-68
2022/05/06 04:58:04;;;;;;;16.75;13.68;;;15.80;90.90;;;;;;5073936;28;20365;-68
2022/05/06 05:00:31;;;;;;;16.08;14.45;;;15.80;91.00;;;;;;5073894;28;20397;-68
2022/05/06 05:02:57;;;;;;;18.83;14.43;;;15.80;91.00;;;;;;5073752;28;20036;-68
2022/05/06 05:05:24;;;;;;;17.52;14.68;;;15.80;90.90;;;;;;5073895;28;20036;-68
2022/05/06 05:07:51;;;;;;;15.68;14.10;;;15.70;90.90;;;;;;5073644;28;20035;-68
2022/05/06 05:10:16;;;;;;;16.25;14.60;;;15.80;91.00;;;;;;5073618;28;20420;-68
2022/05/06 05:12:42;;;;;;;17.05;15.32;;;15.70;91.30;;;;;;5073979;28;20029;-68
2022/05/06 05:15:08;;;;;;;18.48;14.82;;;15.80;91.10;;;;;;5073578;28;20029;-69
2022/05/06 05:17:34;;;;;;;19.08;14.85;;;15.70;91.20;;;;;;5073391;28;20029;-68
2022/05/06 05:20:01;;;;;;;17.17;15.48;;;15.70;91.20;;;;;;5073395;28;20043;-68
2022/05/06 05:22:27;;;;;;;16.27;14.75;;;15.80;91.20;;;;;;5073603;28;20283;-69
2022/05/06 05:24:53;;;;;;;18.23;15.05;;;15.70;91.30;;;;;;5073484;28;20067;-69
2022/05/06 05:27:18;;;;;;;17.17;14.68;;;15.80;91.30;;;;;;5073557;28;20515;-69
2022/05/06 05:29:44;;;;;;;16.20;14.60;;;15.80;91.60;;;;;;5073380;28;20024;-69
2022/05/06 05:32:11;;;;;;;21.80;14.23;;;15.80;91.30;;;;;;5073253;28;20093;-68
2022/05/06 05:34:37;;;;;;;16.83;14.98;;;15.70;91.40;;;;;;5073242;28;20043;-69
2022/05/06 05:37:03;;;;;;;16.23;14.55;;;15.80;91.30;;;;;;5071804;28;20040;-68
2022/05/06 05:39:31;;;;;;;15.65;14.05;;;15.80;91.40;;;;;;5073219;28;20035;-68
2022/05/06 05:41:56;;;;;;;15.73;14.13;;;15.80;91.40;;;;;;5073513;28;20032;-69
2022/05/06 05:49:50;;;;;;;20.48;16.45;;;15.70;91.50;;;;;;5072551;28;20036;-69
2022/05/06 05:52:16;;;;;;;17.35;15.48;;;15.70;91.60;;;;;;5072522;28;20033;-69
2022/05/06 05:54:42;;;;;;;21.10;15.32;;;15.70;91.80;;;;;;5073222;28;20025;-69
2022/05/06 05:57:07;;;;;;;18.95;16.67;;;15.70;91.90;;;;;;5072818;28;20055;-69
2022/05/06 05:59:33;;;;;;;16.35;14.73;;;15.80;91.80;;;;;;5073140;28;20545;-69
2022/05/06 06:02:02;;;;;;;17.00;15.35;;;15.80;91.90;;;;;;5072774;28;20076;-69
2022/05/06 06:04:27;;;;;;;19.02;17.02;;;15.80;91.90;;;;;;5072595;28;20481;-69
2022/05/06 06:06:53;;;;;;;17.40;15.60;;;15.80;92.00;;;;;;5072792;28;20127;-69
2022/05/06 06:09:22;;;;;;;17.75;15.15;;;15.80;91.90;;;;;;5070998;28;20029;-70
2022/05/06 06:11:50;;;;;;;17.08;14.77;;;15.80;91.90;;;;;;5072604;28;20044;-69
2022/05/06 06:14:17;;;;;;;16.27;14.43;;;15.90;92.10;;;;;;5072175;28;20024;-69
2022/05/06 06:16:43;;;;;;;16.75;14.80;;;15.90;92.00;;;;;;5071312;28;20401;-69
2022/05/06 06:19:09;;;;;;;16.40;14.63;;;15.90;92.00;;;;;;5072152;28;20044;-69
2022/05/06 06:21:34;;;;;;;16.15;13.95;;;15.90;92.00;;;;;;5072551;28;20393;-68
2022/05/06 06:24:00;;;;;;;14.95;13.35;;;15.90;92.00;;;;;;5071943;28;20036;-69
2022/05/06 06:26:26;;;;;;;14.93;13.50;;;15.90;91.90;;;;;;5072100;28;20544;-68
2022/05/06 06:28:52;;;;;;;16.17;13.32;;;15.90;91.90;;;;;;5071753;28;20041;-69
2022/05/06 06:31:17;;;;;;;14.98;13.45;;;15.90;91.80;;;;;;5068885;28;20072;-68
2022/05/06 06:33:43;;;;;;;14.63;13.05;;;15.90;91.60;;;;;;5069123;28;20124;-69
2022/05/06 06:36:09;;;;;;;14.70;12.60;;;15.90;91.60;;;;;;5069594;28;20122;-70
2022/05/06 06:38:35;;;;;;;15.48;13.88;;;15.90;91.90;;;;;;5069241;28;20040;-69
2022/05/06 06:41:01;;;;;;;14.07;12.57;;;15.90;91.80;;;;;;5069089;28;20049;-70
2022/05/06 06:43:27;;;;;;;13.68;12.27;;;15.90;92.00;;;;;;5068857;28;20488;-69
2022/05/06 06:45:53;;;;;;;12.60;11.40;;;15.90;91.80;;;;;;5069896;28;20036;-69
2022/05/06 06:48:19;;;;;;;13.07;11.88;;;15.90;91.80;;;;;;5069605;28;20397;-69
2022/05/06 06:50:45;;;;;;;12.60;11.20;;;15.90;91.60;;;;;;5071096;28;20037;-69
2022/05/06 06:53:10;;;;;;;14.65;12.20;;;15.90;91.40;;;;;;5070915;28;20033;-69
2022/05/06 06:55:36;;;;;;;14.18;12.68;;;15.90;91.60;;;;;;5071524;28;20487;-69
2022/05/06 06:58:02;;;;;;;14.00;12.43;;;15.90;91.70;;;;;;5071933;28;20033;-68
2022/05/06 07:00:28;;;;;;;14.07;10.90;;;15.90;91.70;;;;;;5072207;28;20039;-68
2022/05/06 07:02:56;;;;;;;14.60;12.32;;;15.90;91.80;;;;;;5072437;28;20499;-68
2022/05/06 07:05:22;;;;;;;13.43;12.02;;;15.90;91.90;;;;;;5071330;28;20032;-70
2022/05/06 07:13:17;;;;;;;11.25;10.13;;;15.90;91.60;;;;;;5071732;28;20043;-69
2022/05/06 07:15:43;;;;;;;10.23;9.32;;;15.90;91.40;;;;;;5072140;28;20041;-69
2022/05/06 07:18:09;;;;;;;11.55;10.35;;;15.90;91.60;;;;;;5071952;28;20037;-69
2022/05/06 07:20:35;;;;;;;12.45;9.32;;;15.90;91.60;;;;;;5071679;28;20081;-69
2022/05/06 07:23:01;;;;;;;10.63;9.48;;;15.90;91.70;;;;;;5072217;28;20032;-69
2022/05/06 07:25:26;;;;;;;12.25;10.98;;;15.90;91.50;;;;;;5071698;28;20035;-69
2022/05/06 07:27:52;;;;;;;14.95;10.80;;;15.90;91.50;;;;;;5074477;28;20044;-69
2022/05/06 07:30:18;;;;;;;13.77;11.68;;;15.90;91.80;;;;;;5075439;28;20048;-68
2022/05/06 07:32:43;;;;;;;10.57;9.57;;;16.00;92.00;;;;;;5075140;28;20094;-69
2022/05/06 07:35:09;;;;;;;14.07;9.82;;;16.00;92.00;;;;;;5074361;28;20032;-68
2022/05/06 07:37:35;;;;;;;12.95;10.07;;;16.10;91.90;;;;;;5075323;28;20043;-69
2022/05/06 07:40:03;;;;;;;10.48;9.30;;;16.10;92.00;;;;;;5074291;28;20461;-69
2022/05/06 07:42:30;;;;;;;10.45;9.15;;;16.10;91.80;;;;;;5079346;28;20473;-69
2022/05/06 07:44:57;;;;;;;13.30;9.75;;;16.10;91.70;;;;;;5073813;28;20043;-69
2022/05/06 07:47:23;;;;;;;10.75;9.65;;;16.10;91.60;;;;;;5074330;28;20040;-69
2022/05/06 07:49:48;;;;;;;10.57;9.52;;;16.10;91.70;;;;;;5074656;28;20089;-69
2022/05/06 07:52:14;;;;;;;14.57;9.93;;;16.20;91.80;;;;;;5075030;28;20032;-69
2022/05/06 07:54:40;;;;;;;10.02;9.02;;;16.20;91.90;;;;;;5075091;28;20474;-69
2022/05/06 07:57:06;;;;;;;13.18;9.70;;;16.20;91.80;;;;;;5074997;28;20035;-71
2022/05/06 07:59:31;;;;;;;11.88;10.50;;;16.30;92.00;;;;;;5074783;28;20038;-69
2022/05/06 08:04:42;;;;;;;10.38;9.38;;;16.40;91.90;;;;;;5075575;28;20032;-69
2022/05/06 08:07:08;;;;;;;12.63;10.40;;;16.40;91.80;;;;;;5075306;28;20057;-69
2022/05/06 08:09:35;;;;;;;11.90;10.43;;;16.40;91.80;;;;;;5074052;28;20051;-70
2022/05/06 08:12:01;;;;;;;9.77;8.80;;;16.40;91.60;;;;;;5075225;28;20037;-69
2022/05/06 08:14:27;;;;;;;11.48;9.32;;;16.50;91.60;;;;;;5074521;28;20155;-70
2022/05/06 08:16:53;;;;;;;12.85;9.85;;;16.50;91.40;;;;;;5074870;28;20064;-69
2022/05/06 08:19:19;;;;;;;10.95;9.68;;;16.50;91.50;;;;;;5075001;28;20126;-68
2022/05/06 08:21:45;;;;;;;13.65;11.00;;;16.50;91.40;;;;;;5074994;28;20067;-69
2022/05/06 08:24:11;;;;;;;12.55;9.30;;;16.50;91.50;;;;;;5074871;28;20029;-71
2022/05/06 08:26:37;;;;;;;9.35;8.45;;;16.60;91.70;;;;;;5074730;28;20121;-69
2022/05/06 08:29:04;;;;;;;10.02;9.02;;;16.60;91.40;;;;;;5074717;28;20473;-69
2022/05/06 08:31:32;;;;;;;10.95;9.20;;;16.60;91.70;;;;;;5072332;28;20032;-69
2022/05/06 08:33:58;;;;;;;12.07;9.68;;;16.60;91.90;;;;;;5074173;28;20047;-69
2022/05/06 08:36:24;;;;;;;11.93;9.82;;;16.60;91.90;;;;;;5072572;28;20041;-69
2022/05/06 08:38:50;;;;;;;12.73;10.10;;;16.60;91.70;;;;;;5073969;28;20032;-70
2022/05/06 08:41:16;;;;;;;11.95;10.75;;;16.60;91.70;;;;;;5074739;28;20074;-69
2022/05/06 08:43:41;;;;;;;15.02;11.10;;;16.60;92.10;;;;;;5074327;28;20441;-70
2022/05/06 08:51:40;;;;;;;15.60;10.52;;;16.70;92.30;;;;;;5074355;28;20130;-69
2022/05/06 08:54:07;;;;;;;11.55;10.05;;;16.70;92.30;;;;;;5073926;28;20032;-70
2022/05/06 08:56:32;;;;;;;12.82;10.00;;;16.70;92.00;;;;;;5073831;28;20098;-69
2022/05/06 08:58:59;;;;;;;11.50;9.35;;;16.70;91.70;;;;;;5073398;28;20489;-69
2022/05/06 09:01:25;;;;;;;13.52;8.68;;;16.70;91.70;;;;;;5074112;28;20090;-71
2022/05/06 09:03:51;;;;;;;9.35;8.38;;;16.70;91.60;;;;;;5073979;28;20035;-70
2022/05/06 09:06:18;;;;;;;15.38;8.70;;;16.70;91.50;;;;;;5073709;28;20080;-69
2022/05/06 09:08:45;;;;;;;18.80;8.80;;;16.80;91.50;;;;;;5073901;28;20037;-69
2022/05/06 09:11:11;;;;;;;14.68;9.20;;;16.80;91.70;;;;;;5074320;28;20435;-69
2022/05/06 09:13:39;;;;;;;9.63;7.35;;;16.80;91.80;;;;;;5073983;28;20090;-69
2022/05/06 09:16:40;;;;;;;11.30;7.65;;;16.80;91.70;;;;;;5074193;28;20028;-70
2022/05/06 09:19:25;;;;;;;8.20;7.20;;;16.80;91.60;;;;;;5073725;28;20075;-69
2022/05/06 09:22:14;;;;;;;7.90;7.10;;;16.80;91.60;;;;;;5073881;28;20053;-69
2022/05/06 09:24:41;;;;;;;9.90;7.80;;;16.80;91.50;;;;;;5073602;28;20037;-71
2022/05/06 09:27:12;;;;;;;8.52;7.65;;;16.90;91.50;;;;;;5073497;28;20036;-72
2022/05/06 09:29:42;;;;;;;9.88;7.57;;;16.90;91.60;;;;;;5073170;28;20112;-71
2022/05/06 09:32:24;;;;;;;8.18;7.40;;;16.90;91.60;;;;;;5073676;28;20037;-71
2022/05/06 09:34:54;;;;;;;10.27;6.45;;;17.00;91.70;;;;;;5073459;28;20546;-72
2022/05/06 09:37:37;;;;;;;8.57;6.13;;;17.00;91.30;;;;;;5073135;28;20608;-72
2022/05/06 09:40:15;;;;;;;8.00;5.97;;;17.10;90.90;;;;;;5072082;28;20037;-72
2022/05/06 09:42:47;;;;;;;10.13;6.20;;;17.10;90.70;;;;;;5072031;28;20370;-72
2022/05/06 09:45:14;;;;;;;;;;;17.20;90.80;;;;;;5072392;28;20496;-72
2022/05/06 09:47:40;;;;;;;7.28;5.60;;;17.20;90.10;;;;;;5072520;28;19904;-72
2022/05/06 09:50:08;;;;;;;9.38;5.70;;;17.20;90.00;;;;;;5072626;28;20452;-72
2022/05/06 09:52:35;;;;;;;6.63;5.55;;;17.20;90.10;;;;;;5071664;28;20051;-72
2022/05/06 09:55:02;;;;;;;8.60;5.72;;;17.30;90.20;;;;;;5092021;28;20040;-70
2022/05/06 09:57:29;;;;;;;6.70;5.63;;;17.40;90.40;;;;;;5086628;28;20036;-70
2022/05/06 09:59:54;;;;;;;6.93;5.78;;;17.50;90.30;;;;;;5072444;28;20434;-71
2022/05/06 10:02:20;;;;;;;7.05;4.50;;;17.50;90.10;;;;;;5073010;28;20140;-72
2022/05/06 10:04:49;;;;;;;4.68;4.05;;;17.60;89.20;;;;;;5073993;28;20060;-70
2022/05/06 10:07:16;;;;;;;5.32;4.63;;;17.70;87.30;;;;;;5071351;28;20044;-71
2022/05/06 10:09:50;;;;;;;6.95;3.90;;;17.70;86.00;;;;;;5071742;28;20052;-71
2022/05/06 10:12:17;;;;;;;4.88;4.47;;;17.70;85.90;;;;;;5072326;28;20029;-71
2022/05/06 10:14:44;;;;;;;7.80;5.07;;;17.70;85.80;;;;;;5072622;28;20036;-71
2022/05/06 10:17:10;;;;;;;8.05;4.43;;;17.80;87.70;;;;;;5072330;28;20035;-71
2022/05/06 10:19:39;;;;;;;6.40;4.35;;;17.80;88.10;;;;;;5072264;28;20111;-71
2022/05/06 10:22:05;;;;;;;9.70;4.45;;;17.80;87.80;;;;;;5071657;28;20076;-71
2022/05/06 10:24:43;;;;;;;8.40;4.15;;;17.90;87.60;;;;;;5071973;28;20033;-71
2022/05/06 10:33:18;;;;;;;5.75;4.20;;;17.90;85.30;;;;;;5072452;28;20039;-71
2022/05/06 10:35:46;;;;;;;7.05;3.72;;;17.80;84.90;;;;;;5071746;28;20036;-71
2022/05/06 10:38:49;;;;;;;8.85;3.88;;;17.80;84.50;;;;;;5071859;28;20085;-71
2022/05/06 10:41:22;;;;;;;5.82;3.90;;;17.80;84.30;;;;;;5071541;28;20404;-71
2022/05/06 10:43:50;;;;;;;5.43;4.40;;;17.80;84.30;;;;;;5071607;28;20052;-71
2022/05/06 10:46:37;;;;;;;7.95;4.75;;;17.80;85.50;;;;;;5072544;28;20404;-71
2022/05/06 10:49:43;;;;;;;6.38;4.45;;;17.80;86.20;;;;;;5072846;28;20398;-71
2022/05/06 10:52:18;;;;;;;5.30;4.20;;;17.70;86.50;;;;;;5072403;28;20063;-71
2022/05/06 10:54:52;;;;;;;7.20;4.85;;;17.80;87.00;;;;;;5072759;28;20041;-71
2022/05/06 10:57:23;;;;;;;7.18;4.78;;;17.70;87.10;;;;;;5072465;28;20037;-71
2022/05/06 11:00:02;;;;;;;7.38;4.25;;;17.80;87.60;;;;;;5072538;28;20037;-70
2022/05/06 11:02:30;;;;;;;8.55;4.35;;;17.80;87.30;;;;;;5074902;28;20051;-70
2022/05/06 11:05:09;;;;;;;5.97;3.88;;;17.70;87.40;;;;;;5076419;28;20024;-71
2022/05/06 11:07:39;;;;;;;6.93;4.03;;;17.80;86.50;;;;;;5076314;28;20489;-71
2022/05/06 11:10:14;;;;;;;4.88;3.90;;;17.70;85.50;;;;;;5076307;28;20037;-71
2022/05/06 11:12:41;;;;;;;5.60;3.92;;;17.70;85.10;;;;;;5075764;28;20043;-71
2022/05/06 11:15:09;;;;;;;5.93;4.00;;;17.70;85.10;;;;;;5073134;28;20518;-71
2022/05/06 11:17:36;;;;;;;6.70;4.40;;;17.70;85.10;;;;;;5073860;28;20055;-72
2022/05/06 11:20:13;;;;;;;6.18;4.10;;;17.70;86.60;;;;;;5076194;28;20385;-71
2022/05/06 11:22:49;;;;;;;6.75;4.20;;;17.70;86.70;;;;;;5076306;28;20066;-71
2022/05/06 11:25:15;;;;;;;8.00;4.30;;;17.70;86.20;;;;;;5075493;28;20032;-72
2022/05/06 11:27:41;;;;;;;5.15;4.03;;;17.70;85.70;;;;;;5072873;28;20039;-70
2022/05/06 11:30:08;;;;;;;5.80;3.92;;;17.70;85.20;;;;;;5071791;28;20028;-72
2022/05/06 11:32:34;;;;;;;6.93;3.60;;;17.70;85.00;;;;;;5072062;28;20090;-72
2022/05/06 11:35:06;;;;;;;3.95;3.40;;;17.70;84.60;;;;;;5074875;28;20056;-71
2022/05/06 11:37:34;;;;;;;5.90;4.13;;;17.70;85.20;;;;;;5074887;28;20116;-71
2022/05/06 11:40:18;;;;;;;6.35;3.67;;;17.70;85.50;;;;;;5075428;28;20036;-70
2022/05/06 11:42:44;;;;;;;4.32;3.88;;;17.70;85.10;;;;;;5074691;28;20044;-71
2022/05/06 11:48:08;;;;;;;5.30;3.85;;;17.70;84.30;;;;;;5074882;28;20080;-71
2022/05/06 11:50:34;;;;;;;6.38;3.95;;;17.70;84.60;;;;;;5074402;28;20460;-70
2022/05/06 11:53:02;;;;;;;5.20;3.45;;;17.80;84.40;;;;;;5074427;28;20033;-70
2022/05/06 11:55:30;;;;;;;8.70;3.65;;;17.70;84.40;;;;;;5074548;28;20044;-71
2022/05/06 11:57:56;;;;;;;5.90;3.83;;;17.80;84.20;;;;;;5074290;28;20430;-69
2022/05/06 12:00:23;;;;;;;6.57;3.15;;;17.80;84.30;;;;;;5075200;28;20025;-70
2022/05/06 12:02:51;;;;;;;6.82;3.80;;;17.80;83.50;;;;;;5075431;28;20036;-69
2022/05/06 12:05:18;;;;;;;8.40;4.22;;;17.80;83.20;;;;;;5074979;28;20127;-70
2022/05/06 12:07:45;;;;;;;5.32;4.00;;;17.80;83.50;;;;;;5073643;28;20040;-69
2022/05/06 12:10:41;;;;;;;6.47;3.95;;;17.80;83.50;;;;;;5074199;28;20066;-70
2022/05/06 12:13:08;;;;;;;5.55;4.00;;;17.80;83.10;;;;;;5051744;28;20048;-70
2022/05/06 12:15:35;;;;;;;5.45;3.72;;;17.80;83.80;;;;;;5074439;28;20082;-69
2022/05/06 12:18:24;;;;;;;6.00;3.63;;;17.80;83.70;;;;;;5074199;28;20397;-70
2022/05/06 12:20:50;;;;;;;6.55;3.75;;;17.80;83.30;;;;;;5074293;28;20049;-71
2022/05/06 12:23:25;;;;;;;4.80;3.20;;;17.80;82.50;;;;;;5074322;28;20117;-71
2022/05/06 12:25:54;;;;;;;4.75;3.58;;;17.80;81.90;;;;;;5074486;28;20477;-72
2022/05/06 12:28:20;;;;;;;3.97;3.10;;;17.80;82.30;;;;;;5073629;28;20112;-70
2022/05/06 12:30:47;;;;;;;8.05;2.80;;;17.90;82.80;;;;;;5072712;28;20029;-71
2022/05/06 12:33:17;;;;;;;7.50;3.35;;;17.80;82.10;;;;;;5071238;28;20029;-69
2022/05/06 12:36:00;;;;;;;4.43;2.90;;;17.80;81.50;;;;;;5072507;28;20354;-70
2022/05/06 12:38:36;;;;;;;4.78;2.55;;;17.90;81.80;;;;;;5074213;28;20461;-70
2022/05/06 12:41:15;;;;;;;7.07;2.60;;;17.90;80.90;;;;;;5073943;28;20041;-71
2022/05/06 12:43:41;;;;;;;4.85;2.63;;;17.90;79.80;;;;;;5071535;28;20086;-69
2022/05/06 12:46:06;;;;;;;7.10;2.60;;;18.00;79.50;;;;;;5074260;28;20037;-69
2022/05/06 12:51:16;;;;;;;3.90;2.53;;;18.00;78.80;;;;;;5074084;28;20094;-71
2022/05/06 12:53:42;;;;;;;5.20;2.97;;;18.00;78.40;;;;;;5074547;28;20427;-71
2022/05/06 12:56:17;;;;;;;4.53;2.90;;;18.00;79.30;;;;;;5073675;28;20082;-71
2022/05/06 12:58:43;;;;;;;4.82;3.20;;;18.00;79.00;;;;;;5072711;28;20412;-71
2022/05/06 13:01:09;;;;;;;7.95;2.90;;;18.00;79.20;;;;;;5072252;28;20037;-70
2022/05/06 13:03:34;;;;;;;4.57;2.63;;;18.10;79.10;;;;;;5071599;28;20115;-72
2022/05/06 13:06:00;;;;;;;3.65;2.20;;;18.00;78.70;;;;;;5071219;28;20080;-69
2022/05/06 13:08:27;;;;;;;4.95;2.67;;;18.10;78.20;;;;;;5072730;28;20381;-71
2022/05/06 13:10:53;;;;;;;4.57;2.75;;;18.10;78.20;;;;;;5074114;28;20055;-70
2022/05/06 13:13:19;;;;;;;4.60;2.85;;;18.10;77.80;;;;;;5072842;28;20033;-70
2022/05/06 13:15:44;;;;;;;8.75;3.83;;;18.10;78.20;;;;;;5070938;28;20029;-72
2022/05/06 13:18:10;;;;;;;6.63;3.25;;;18.10;79.70;;;;;;5070811;28;20037;-69
2022/05/06 13:20:36;;;;;;;8.20;3.00;;;18.00;80.10;;;;;;5071241;28;20037;-70
2022/05/06 13:23:02;;;;;;;6.22;2.95;;;18.00;80.00;;;;;;5073376;28;20036;-70